RCF997 UUEE-ZBAA
Flight info
| Callsign | RCF997 |
|---|---|
| Flight time | N/A |
| Altitude | 31000 |
| Route | OLMUN3F OLMUN T629 IPSIL T830 LAMGU N604 OGSIN/K0909F330 P983 TINRI T448 RUBOR A300 ML A308 KD A575 IDGAR/K0893F350 A575 DARNO/K0891S1070 Y746 NIXAL G343 TMR B458 BIKUT W69 GUVBA GUVBA6J |
| Aircraft | MD11/H-SDE1E2E3FGHIJ2J3J4J5M1RWXY/LB1D1 |
Departure
| Time | 2026-05-01 14:58 |
|---|---|
| Airport | Sheremetyevo International Airport (UUEE) |
Arrival
| Time | N/A |
|---|---|
| Airport | Beijing Capital International Airport (ZBAA) |
| Time | Latitude | Longitude | Altitude | Speed | Heading |
|---|---|---|---|---|---|
| 2026-05-01 14:11 | 55.98214 | 37.43066 | 642 ft | 0 kts | 345° |
| 2026-05-01 14:40 | 55.98206 | 37.43069 | 642 ft | 2 kts | 346° |
| 2026-05-01 14:41 | 55.98191 | 37.43076 | 642 ft | 2 kts | 346° |
| 2026-05-01 14:41 | 55.98177 | 37.43082 | 642 ft | 2 kts | 349° |
| 2026-05-01 14:41 | 55.98162 | 37.43084 | 642 ft | 2 kts | 6° |
| 2026-05-01 14:41 | 55.98148 | 37.43078 | 642 ft | 2 kts | 18° |
| 2026-05-01 14:42 | 55.98134 | 37.43067 | 642 ft | 2 kts | 32° |
| 2026-05-01 14:42 | 55.98122 | 37.43051 | 642 ft | 2 kts | 45° |
| 2026-05-01 14:42 | 55.98113 | 37.43030 | 642 ft | 2 kts | 58° |
| 2026-05-01 14:42 | 55.98107 | 37.43006 | 642 ft | 1 kts | 72° |
| 2026-05-01 14:43 | 55.98105 | 37.42998 | 642 ft | 0 kts | 75° |
| 2026-05-01 14:51 | 55.98110 | 37.43031 | 642 ft | 4 kts | 75° |
| 2026-05-01 14:52 | 55.98133 | 37.43187 | 642 ft | 7 kts | 80° |
| 2026-05-01 14:52 | 55.98112 | 37.43259 | 642 ft | 7 kts | 140° |
| 2026-05-01 14:52 | 55.98014 | 37.43324 | 642 ft | 8 kts | 163° |
| 2026-05-01 14:53 | 55.97969 | 37.43373 | 642 ft | 7 kts | 116° |
| 2026-05-01 14:53 | 55.97968 | 37.43469 | 642 ft | 8 kts | 77° |
| 2026-05-01 14:53 | 55.97979 | 37.43559 | 642 ft | 4 kts | 93° |
| 2026-05-01 14:53 | 55.97957 | 37.43605 | 642 ft | 5 kts | 149° |
| 2026-05-01 14:54 | 55.97921 | 37.43625 | 642 ft | 5 kts | 161° |
| 2026-05-01 14:54 | 55.97909 | 37.43675 | 642 ft | 4 kts | 85° |
| 2026-05-01 14:54 | 55.97918 | 37.43737 | 642 ft | 5 kts | 75° |
| 2026-05-01 14:54 | 55.97928 | 37.43807 | 642 ft | 6 kts | 75° |
| 2026-05-01 14:55 | 55.97940 | 37.43890 | 642 ft | 7 kts | 75° |
| 2026-05-01 14:55 | 55.97950 | 37.43982 | 642 ft | 6 kts | 91° |
| 2026-05-01 14:55 | 55.97924 | 37.44028 | 642 ft | 5 kts | 162° |
| 2026-05-01 14:55 | 55.97888 | 37.44047 | 642 ft | 5 kts | 163° |
| 2026-05-01 14:56 | 55.97847 | 37.44068 | 642 ft | 6 kts | 164° |
| 2026-05-01 14:56 | 55.97803 | 37.44085 | 642 ft | 6 kts | 186° |
| 2026-05-01 14:56 | 55.97784 | 37.44036 | 642 ft | 4 kts | 256° |
| 2026-05-01 14:56 | 55.97782 | 37.44025 | 642 ft | 0 kts | 255° |
| 2026-05-01 14:57 | 55.97781 | 37.44019 | 642 ft | 2 kts | 255° |
| 2026-05-01 14:57 | 55.97631 | 37.43004 | 642 ft | 98 kts | 255° |
| 2026-05-01 14:57 | 55.97403 | 37.41499 | 643 ft | 150 kts | 255° |
| 2026-05-01 14:58 | 55.97085 | 37.39395 | 644 ft | 200 kts | 255° |
| 2026-05-01 14:58 | 55.96715 | 37.36906 | 1175 ft | 202 kts | 256° |
| 2026-05-01 14:58 | 55.96376 | 37.34535 | 1883 ft | 198 kts | 257° |
| 2026-05-01 14:58 | 55.95845 | 37.32240 | 2387 ft | 209 kts | 231° |
| 2026-05-01 14:59 | 55.94920 | 37.30309 | 2943 ft | 214 kts | 229° |
| 2026-05-01 14:59 | 55.93917 | 37.28480 | 3796 ft | 208 kts | 229° |
| 2026-05-01 14:59 | 55.92878 | 37.26425 | 4038 ft | 235 kts | 232° |
| 2026-05-01 14:59 | 55.91839 | 37.24169 | 4768 ft | 235 kts | 233° |
| 2026-05-01 15:00 | 55.89096 | 37.20905 | 6235 ft | 245 kts | 194° |
| 2026-05-01 15:00 | 55.87367 | 37.20737 | 6637 ft | 265 kts | 172° |
| 2026-05-01 15:00 | 55.85639 | 37.21910 | 6997 ft | 279 kts | 144° |
| 2026-05-01 15:01 | 55.84143 | 37.24056 | 8008 ft | 274 kts | 136° |
| 2026-05-01 15:01 | 55.82756 | 37.26313 | 8927 ft | 280 kts | 136° |
| 2026-05-01 15:01 | 55.81518 | 37.29070 | 9420 ft | 290 kts | 104° |
| 2026-05-01 15:01 | 55.81354 | 37.32484 | 10387 ft | 280 kts | 73° |
| 2026-05-01 15:02 | 55.82214 | 37.35557 | 11129 ft | 278 kts | 42° |
| 2026-05-01 15:02 | 55.83119 | 37.37069 | 11942 ft | 269 kts | 38° |
| 2026-05-01 15:02 | 55.85086 | 37.39840 | 12311 ft | 281 kts | 35° |
| 2026-05-01 15:02 | 55.86618 | 37.41896 | 13091 ft | 270 kts | 35° |
| 2026-05-01 15:03 | 55.88129 | 37.43943 | 13365 ft | 278 kts | 36° |
| 2026-05-01 15:03 | 55.89642 | 37.46020 | 14046 ft | 270 kts | 36° |
| 2026-05-01 15:03 | 55.91142 | 37.48082 | 14458 ft | 275 kts | 36° |
| 2026-05-01 15:03 | 55.92560 | 37.50308 | 14854 ft | 275 kts | 49° |
| 2026-05-01 15:04 | 55.93513 | 37.53295 | 15121 ft | 283 kts | 70° |
| 2026-05-01 15:04 | 55.93706 | 37.56853 | 15411 ft | 296 kts | 91° |
| 2026-05-01 15:04 | 55.93355 | 37.60478 | 15866 ft | 301 kts | 95° |
| 2026-05-01 15:04 | 55.92891 | 37.64182 | 16230 ft | 306 kts | 96° |
| 2026-05-01 15:05 | 55.92424 | 37.67845 | 16768 ft | 304 kts | 96° |
| 2026-05-01 15:05 | 55.91950 | 37.71545 | 17146 ft | 309 kts | 98° |
| 2026-05-01 15:05 | 55.91273 | 37.75184 | 17581 ft | 315 kts | 107° |
| 2026-05-01 15:05 | 55.90279 | 37.78693 | 17829 ft | 327 kts | 112° |
| 2026-05-01 15:06 | 55.89119 | 37.82324 | 17962 ft | 340 kts | 113° |
| 2026-05-01 15:06 | 55.87940 | 37.85975 | 18448 ft | 336 kts | 112° |
| 2026-05-01 15:06 | 55.86827 | 37.89436 | 19422 ft | 320 kts | 111° |
| 2026-05-01 15:06 | 55.85712 | 37.93010 | 19549 ft | 332 kts | 110° |
| 2026-05-01 15:07 | 55.84586 | 37.96656 | 19732 ft | 341 kts | 111° |
| 2026-05-01 15:07 | 55.83423 | 38.00407 | 19883 ft | 352 kts | 111° |
| 2026-05-01 15:07 | 55.82208 | 38.04327 | 19797 ft | 370 kts | 111° |
| 2026-05-01 15:07 | 55.81152 | 38.07704 | 19734 ft | 385 kts | 112° |
| 2026-05-01 15:08 | 55.79984 | 38.11996 | 19568 ft | 384 kts | 100° |
| 2026-05-01 15:08 | 55.79545 | 38.16579 | 19472 ft | 369 kts | 84° |
| 2026-05-01 15:08 | 55.79614 | 38.21088 | 19433 ft | 366 kts | 81° |
| 2026-05-01 15:08 | 55.79769 | 38.25554 | 19317 ft | 365 kts | 80° |
| 2026-05-01 15:09 | 55.79916 | 38.29944 | 19187 ft | 363 kts | 81° |
| 2026-05-01 15:09 | 55.80048 | 38.34462 | 19063 ft | 362 kts | 81° |
| 2026-05-01 15:09 | 55.80214 | 38.38830 | 18952 ft | 348 kts | 76° |
| 2026-05-01 15:09 | 55.80619 | 38.42863 | 19310 ft | 321 kts | 69° |
| 2026-05-01 15:10 | 55.81245 | 38.46592 | 19872 ft | 317 kts | 66° |
| 2026-05-01 15:10 | 55.82578 | 38.54010 | 20742 ft | 320 kts | 66° |
| 2026-05-01 15:10 | 55.83247 | 38.57780 | 21156 ft | 322 kts | 66° |
| 2026-05-01 15:11 | 55.83918 | 38.61563 | 21560 ft | 323 kts | 66° |
| 2026-05-01 15:11 | 55.85251 | 38.69068 | 22337 ft | 321 kts | 65° |
| 2026-05-01 15:11 | 55.86044 | 38.72753 | 22738 ft | 320 kts | 60° |
| 2026-05-01 15:12 | 55.86982 | 38.76339 | 23147 ft | 321 kts | 59° |
| 2026-05-01 15:12 | 55.88903 | 38.83565 | 23948 ft | 325 kts | 59° |
| 2026-05-01 15:12 | 55.89864 | 38.87209 | 24352 ft | 327 kts | 60° |
| 2026-05-01 15:13 | 55.92728 | 38.98091 | 25432 ft | 330 kts | 59° |
| 2026-05-01 15:14 | 55.94652 | 39.05352 | 26133 ft | 332 kts | 59° |
| 2026-05-01 15:14 | 55.95639 | 39.09069 | 26480 ft | 333 kts | 59° |
| 2026-05-01 15:14 | 55.97605 | 39.16523 | 27161 ft | 334 kts | 59° |
| 2026-05-01 15:15 | 55.99507 | 39.23826 | 27823 ft | 334 kts | 58° |
| 2026-05-01 15:15 | 56.01414 | 39.31101 | 28493 ft | 333 kts | 58° |
| 2026-05-01 15:16 | 56.03357 | 39.38500 | 29161 ft | 332 kts | 58° |
| 2026-05-01 15:16 | 56.05314 | 39.45915 | 29838 ft | 329 kts | 57° |
| 2026-05-01 15:17 | 56.07381 | 39.53088 | 30490 ft | 323 kts | 54° |
| 2026-05-01 15:18 | 56.10792 | 39.63346 | 31194 ft | 322 kts | 52° |
| 2026-05-01 15:19 | 56.15578 | 39.77142 | 31224 ft | 356 kts | 53° |
| 2026-05-01 15:19 | 56.18296 | 39.84971 | 31207 ft | 374 kts | 53° |
| 2026-05-01 15:19 | 56.19694 | 39.88998 | 31195 ft | 383 kts | 53° |
| 2026-05-01 15:20 | 56.22276 | 39.96411 | 31162 ft | 399 kts | 53° |
| 2026-05-01 15:20 | 56.23897 | 40.01056 | 31156 ft | 408 kts | 53° |
| 2026-05-01 15:21 | 56.26984 | 40.09906 | 31132 ft | 423 kts | 53° |
| 2026-05-01 15:21 | 56.30091 | 40.18808 | 31160 ft | 415 kts | 53° |
| 2026-05-01 15:22 | 56.34656 | 40.31796 | 31176 ft | 416 kts | 52° |
| 2026-05-01 15:22 | 56.37775 | 40.40641 | 31160 ft | 416 kts | 52° |
| 2026-05-01 15:23 | 56.40861 | 40.49412 | 31159 ft | 417 kts | 52° |
| 2026-05-01 15:23 | 56.43921 | 40.58260 | 31152 ft | 420 kts | 55° |
| 2026-05-01 15:24 | 56.46403 | 40.67684 | 31122 ft | 428 kts | 64° |
| 2026-05-01 15:24 | 56.48134 | 40.77959 | 31168 ft | 433 kts | 68° |
| 2026-05-01 15:25 | 56.49637 | 40.88475 | 31138 ft | 432 kts | 69° |
| 2026-05-01 15:25 | 56.51115 | 40.98997 | 31140 ft | 433 kts | 69° |
| 2026-05-01 15:26 | 56.52610 | 41.09566 | 31124 ft | 435 kts | 69° |
| 2026-05-01 15:26 | 56.54135 | 41.20267 | 31164 ft | 439 kts | 69° |
| 2026-05-01 15:27 | 56.55644 | 41.30846 | 31131 ft | 436 kts | 69° |
| 2026-05-01 15:28 | 56.57939 | 41.46797 | 31147 ft | 440 kts | 69° |
| 2026-05-01 15:28 | 56.59436 | 41.57160 | 31131 ft | 440 kts | 69° |
| 2026-05-01 15:29 | 56.61785 | 41.73336 | 31157 ft | 443 kts | 69° |